Airport View

Enter AWOS ICAO identifier for current METAR.

ex. KFNL

KGHG 270015Z AUTO 25004KT 10SM CLR 04/M02 A2970 RMK AO2

27 Jan 2020 00:32

Frequency: 120.0

Phone: 781-837-0555

Other Area AWOS: KPYM - KPVC - KTAN - KMQE

TAF KBOS 262321Z 2700/2806 26010KT P6SM FEW050 FM271300 25010G18KT P6SM BKN050 FM271500 25011G19KT P6SM BKN050 FM272200 27012G19KT P6SM SCT040 FM280100 28010KT P6SM SCT070